createdAt,value
2018-04-10T00:00:04.623Z,17.5
2018-04-10T00:15:04.643Z,17.4
2018-04-10T00:30:04.461Z,17.4
2018-04-10T00:45:04.804Z,17.2
2018-04-10T01:00:05.318Z,17
2018-04-10T01:15:05.028Z,16.7
2018-04-10T01:30:04.826Z,16.5
2018-04-10T01:45:04.872Z,16.2
2018-04-10T02:00:05.330Z,16
2018-04-10T02:15:04.813Z,15.7
2018-04-10T02:30:04.607Z,15.4
2018-04-10T02:45:04.956Z,15.2
2018-04-10T03:00:05.097Z,15
2018-04-10T03:15:05.188Z,14.8
2018-04-10T03:30:04.625Z,14.5
2018-04-10T03:45:04.602Z,14.4
2018-04-10T04:00:05.562Z,14.3
2018-04-10T04:15:04.650Z,14.2
2018-04-10T04:30:04.763Z,14.1
2018-04-10T04:45:04.653Z,13.9
2018-04-10T05:00:05.531Z,13.9
2018-04-10T05:15:04.743Z,13.8
2018-04-10T05:30:04.977Z,13.8
2018-04-10T05:45:04.925Z,13.7
2018-04-10T06:00:04.937Z,14.3
2018-04-10T06:15:04.285Z,15
2018-04-10T06:30:04.935Z,16
2018-04-10T06:45:04.320Z,16.8
2018-04-10T07:00:04.703Z,18.3
2018-04-10T07:15:05.114Z,19.4
2018-04-10T07:30:04.264Z,20.6
2018-04-10T07:45:04.698Z,22.3
2018-04-10T08:00:05.201Z,25.5
2018-04-10T08:15:05.127Z,34.8
2018-04-10T08:30:04.273Z,37.2
2018-04-10T08:45:04.262Z,39.6
2018-04-10T09:00:04.405Z,40.3
2018-04-10T09:15:04.907Z,41.1
2018-04-10T09:30:04.503Z,40.9
2018-04-10T09:45:04.430Z,41.7
2018-04-10T10:00:04.992Z,31.9
2018-04-10T10:15:04.402Z,27.9
2018-04-10T10:30:04.507Z,26.3
2018-04-10T10:45:04.385Z,24.9
2018-04-10T11:00:04.791Z,24.1
2018-04-10T11:15:04.672Z,23.9
2018-04-10T11:30:04.376Z,23.8
2018-04-10T11:45:04.291Z,23.5
2018-04-10T12:00:04.695Z,23.7
2018-04-10T12:15:04.644Z,23.3
2018-04-10T12:30:04.784Z,23
2018-04-10T12:45:04.707Z,20.8
2018-04-10T13:00:04.277Z,19.9
2018-04-10T13:15:04.709Z,19.7
2018-04-10T13:30:04.286Z,18.8
2018-04-10T13:45:04.689Z,18
2018-04-10T14:00:05.143Z,17.6
2018-04-10T14:15:05.107Z,17.4
2018-04-10T14:30:04.706Z,17.5
2018-04-10T14:45:04.572Z,17.3
2018-04-10T15:00:04.481Z,17.5
2018-04-10T15:15:04.413Z,16.7
2018-04-10T15:30:04.504Z,16.4
2018-04-10T15:45:04.426Z,16.3
2018-04-10T16:00:04.996Z,16.4
2018-04-10T16:15:04.577Z,16.1
2018-04-10T16:30:05.252Z,16
2018-04-10T16:45:05.261Z,15.9
2018-04-10T17:00:05.441Z,15.6
2018-04-10T17:15:04.335Z,15.2
2018-04-10T17:30:04.989Z,15.3
2018-04-10T17:45:05.092Z,15.4
2018-04-10T18:00:05.181Z,15.2
2018-04-10T18:15:04.599Z,15.1
2018-04-10T18:30:05.076Z,14.7
2018-04-10T18:45:04.856Z,14.5
2018-04-10T19:00:04.635Z,14.1
2018-04-10T19:15:05.067Z,13.9
2018-04-10T19:30:04.838Z,13.5
2018-04-10T19:45:04.902Z,13.3
2018-04-10T20:00:04.812Z,13
2018-04-10T20:15:04.308Z,13
2018-04-10T20:30:04.630Z,12.7
2018-04-10T20:45:05.327Z,12.5
2018-04-10T21:00:05.082Z,12.4
2018-04-10T21:15:05.161Z,12.2
2018-04-10T21:30:04.411Z,11.9
2018-04-10T21:45:05.057Z,11.7
2018-04-10T22:00:05.186Z,11.5
2018-04-10T22:15:05.264Z,11.5
2018-04-10T22:30:04.861Z,11.2
2018-04-10T22:45:04.353Z,11.1
2018-04-10T23:00:04.329Z,10.8
2018-04-10T23:15:04.754Z,10.7
2018-04-10T23:30:04.883Z,10.6
2018-04-10T23:45:04.781Z,10.5
